createdAt,value
2022-07-27T00:00:55.639Z,18.58
2022-07-27T00:03:22.850Z,18.55
2022-07-27T00:05:49.519Z,18.51
2022-07-27T00:08:16.147Z,18.49
2022-07-27T00:10:42.572Z,18.46
2022-07-27T00:13:10.455Z,18.41
2022-07-27T00:15:37.374Z,18.37
2022-07-27T00:18:04.066Z,18.35
2022-07-27T00:20:31.508Z,18.34
2022-07-27T00:22:59.050Z,18.33
2022-07-27T00:25:27.120Z,18.33
2022-07-27T00:27:56.598Z,18.31
2022-07-27T00:30:23.856Z,18.28
2022-07-27T00:32:51.544Z,18.24
2022-07-27T00:35:18.355Z,18.22
2022-07-27T00:37:44.806Z,18.20
2022-07-27T00:40:12.296Z,18.17
2022-07-27T00:42:38.804Z,18.16
2022-07-27T00:45:06.121Z,18.14
2022-07-27T00:47:35.476Z,18.12
2022-07-27T00:50:03.622Z,18.10
2022-07-27T00:52:31.206Z,18.09
2022-07-27T00:54:58.715Z,18.08
2022-07-27T00:57:27.450Z,18.08
2022-07-27T00:59:54.154Z,18.07
2022-07-27T01:02:22.991Z,18.08
2022-07-27T01:04:53.790Z,18.08
2022-07-27T01:07:25.389Z,18.08
2022-07-27T01:09:58.192Z,18.09
2022-07-27T01:12:30.932Z,18.11
2022-07-27T01:14:58.952Z,18.12
2022-07-27T01:17:30.061Z,18.12
2022-07-27T01:20:00.394Z,18.13
2022-07-27T01:22:27.031Z,18.13
2022-07-27T01:24:53.777Z,18.12
2022-07-27T01:27:20.678Z,18.11
2022-07-27T01:29:47.908Z,18.10
2022-07-27T01:32:14.532Z,18.06
2022-07-27T01:34:41.014Z,18.03
2022-07-27T01:37:07.553Z,18.03
2022-07-27T01:39:34.032Z,18.01
2022-07-27T01:42:00.828Z,17.98
2022-07-27T01:44:27.342Z,17.96
2022-07-27T01:46:53.933Z,17.94
2022-07-27T01:49:20.769Z,17.92
2022-07-27T01:51:47.669Z,17.90
2022-07-27T01:54:14.631Z,17.86
2022-07-27T01:56:41.272Z,17.82
2022-07-27T01:59:16.307Z,17.79
2022-07-27T02:01:44.405Z,17.78
2022-07-27T02:04:11.729Z,17.79
2022-07-27T02:06:38.798Z,17.77
2022-07-27T02:09:05.340Z,17.76
2022-07-27T02:11:50.628Z,17.74
2022-07-27T02:14:17.078Z,17.74
2022-07-27T02:16:43.656Z,17.72
2022-07-27T02:19:11.230Z,17.72
2022-07-27T02:21:37.904Z,17.73
2022-07-27T02:24:04.983Z,17.73
2022-07-27T02:26:31.393Z,17.73
2022-07-27T02:28:58.210Z,17.75
2022-07-27T02:31:24.689Z,17.76
2022-07-27T02:33:51.392Z,17.77
2022-07-27T02:36:17.906Z,17.78
2022-07-27T02:38:44.692Z,17.79
2022-07-27T02:41:12.057Z,17.80
2022-07-27T02:43:38.495Z,17.81
2022-07-27T02:46:05.554Z,17.83
2022-07-27T02:48:32.511Z,17.84
2022-07-27T02:51:00.818Z,17.86
2022-07-27T02:53:28.703Z,17.88
2022-07-27T02:55:55.814Z,17.90
2022-07-27T02:58:23.126Z,17.93
2022-07-27T03:00:52.583Z,17.96
2022-07-27T03:03:22.815Z,17.99
2022-07-27T03:06:00.874Z,18.02
2022-07-27T03:08:27.810Z,18.06
2022-07-27T03:10:54.820Z,18.10
2022-07-27T03:13:21.675Z,18.13
2022-07-27T03:15:48.154Z,18.16
2022-07-27T03:18:14.619Z,18.20
2022-07-27T03:20:41.042Z,18.21
2022-07-27T03:23:08.450Z,18.24
2022-07-27T03:25:34.956Z,18.28
2022-07-27T03:28:04.175Z,18.30
2022-07-27T03:30:32.403Z,18.31
2022-07-27T03:32:58.979Z,18.32
2022-07-27T03:35:25.512Z,18.33
2022-07-27T03:37:52.006Z,18.35
2022-07-27T03:40:18.814Z,18.37
2022-07-27T03:42:45.497Z,18.40
2022-07-27T03:45:12.008Z,18.42
2022-07-27T03:47:38.458Z,18.43
2022-07-27T03:50:07.543Z,18.45
2022-07-27T03:52:34.031Z,18.49
2022-07-27T03:55:00.807Z,18.53
2022-07-27T03:57:27.273Z,18.57
2022-07-27T03:59:53.762Z,18.60
2022-07-27T04:02:20.548Z,18.62
2022-07-27T04:04:47.374Z,18.67
2022-07-27T04:07:13.798Z,18.72
2022-07-27T04:09:40.737Z,18.78
2022-07-27T04:12:09.493Z,18.82
2022-07-27T04:14:36.116Z,18.86
2022-07-27T04:17:03.068Z,18.89
2022-07-27T04:19:30.131Z,18.91
2022-07-27T04:21:56.873Z,18.95
2022-07-27T04:24:23.385Z,19.03
2022-07-27T04:26:49.856Z,19.15
2022-07-27T04:29:20.495Z,19.29
2022-07-27T04:31:48.090Z,19.48
2022-07-27T04:34:15.037Z,19.79
2022-07-27T04:36:41.555Z,20.00
2022-07-27T04:39:08.537Z,20.12
2022-07-27T04:41:35.223Z,20.23
2022-07-27T04:44:01.859Z,20.32
2022-07-27T04:46:29.050Z,20.40
2022-07-27T04:48:55.797Z,20.46
2022-07-27T04:51:22.225Z,20.28
2022-07-27T04:53:52.719Z,20.12
2022-07-27T04:56:26.769Z,20.03
2022-07-27T04:58:54.451Z,19.97
2022-07-27T05:01:22.378Z,19.94
2022-07-27T05:03:48.864Z,19.88
2022-07-27T05:06:15.657Z,19.86
2022-07-27T05:08:42.009Z,19.93
2022-07-27T05:11:11.596Z,20.00
2022-07-27T05:13:39.978Z,20.02
2022-07-27T05:16:08.822Z,20.04
2022-07-27T05:18:35.879Z,20.04
2022-07-27T05:21:02.688Z,20.12
2022-07-27T05:23:29.119Z,20.21
2022-07-27T05:25:55.564Z,20.29
2022-07-27T05:28:25.094Z,20.40
2022-07-27T05:30:52.917Z,20.50
2022-07-27T05:33:19.463Z,20.57
2022-07-27T05:35:45.879Z,20.62
2022-07-27T05:38:13.720Z,20.61
2022-07-27T05:40:40.750Z,20.62
2022-07-27T05:43:07.213Z,20.65
2022-07-27T05:45:34.287Z,20.70
2022-07-27T05:48:00.742Z,20.67
2022-07-27T05:50:27.302Z,20.69
2022-07-27T05:52:53.758Z,20.70
2022-07-27T05:55:21.414Z,20.60
2022-07-27T05:57:47.932Z,20.49
2022-07-27T06:00:14.555Z,20.31
2022-07-27T06:02:41.752Z,20.22
2022-07-27T06:05:14.836Z,20.26
2022-07-27T06:08:01.667Z,20.26
2022-07-27T06:10:31.750Z,20.16
2022-07-27T06:12:58.358Z,20.14
2022-07-27T06:15:25.409Z,20.13
2022-07-27T06:17:54.878Z,20.07
2022-07-27T06:20:23.025Z,19.97
2022-07-27T06:22:52.510Z,19.85
2022-07-27T06:25:21.076Z,19.77
2022-07-27T06:27:48.135Z,19.77
2022-07-27T06:30:17.003Z,19.84
2022-07-27T06:32:44.467Z,19.97
2022-07-27T06:35:12.642Z,19.95
2022-07-27T06:37:44.277Z,20.02
2022-07-27T06:40:12.726Z,20.09
2022-07-27T06:42:40.808Z,20.08
2022-07-27T06:45:09.691Z,20.16
2022-07-27T06:47:48.751Z,20.24
2022-07-27T06:50:18.640Z,20.32
2022-07-27T06:52:46.761Z,20.38
2022-07-27T06:55:13.344Z,20.53
2022-07-27T06:57:39.775Z,20.72
2022-07-27T07:00:06.996Z,20.98
2022-07-27T07:02:33.474Z,21.16
2022-07-27T07:04:59.885Z,21.26
2022-07-27T07:07:26.555Z,21.47
2022-07-27T07:09:53.077Z,21.48
2022-07-27T07:12:19.742Z,21.62
2022-07-27T07:14:46.261Z,22.01
2022-07-27T07:17:12.963Z,22.35
2022-07-27T07:19:39.391Z,22.39
2022-07-27T07:22:06.011Z,22.41
2022-07-27T07:24:33.087Z,22.66
2022-07-27T07:26:59.605Z,22.91
2022-07-27T07:29:26.039Z,23.13
2022-07-27T07:31:52.523Z,23.35
2022-07-27T07:34:18.942Z,23.53
2022-07-27T07:36:47.324Z,23.54
2022-07-27T07:39:14.268Z,23.74
2022-07-27T07:41:41.006Z,23.90
2022-07-27T07:44:08.537Z,23.95
2022-07-27T07:46:36.342Z,23.97
2022-07-27T07:49:04.478Z,23.93
2022-07-27T07:51:31.541Z,23.91
2022-07-27T07:53:58.111Z,23.77
2022-07-27T07:56:25.025Z,23.70
2022-07-27T07:58:51.486Z,23.55
2022-07-27T08:01:27.772Z,23.54
2022-07-27T08:03:57.832Z,23.67
2022-07-27T08:06:24.418Z,23.85
2022-07-27T08:08:51.039Z,23.90
2022-07-27T08:11:17.815Z,23.95
2022-07-27T08:13:44.251Z,24.07
2022-07-27T08:16:10.768Z,24.12
2022-07-27T08:18:37.298Z,24.17
2022-07-27T08:21:03.790Z,23.88
2022-07-27T08:23:33.114Z,23.81
2022-07-27T08:26:04.118Z,23.64
2022-07-27T08:28:36.958Z,23.58
2022-07-27T08:31:08.991Z,23.42
2022-07-27T08:33:42.950Z,23.33
2022-07-27T08:36:09.490Z,22.81
2022-07-27T08:38:36.818Z,22.36
2022-07-27T08:41:03.763Z,21.85
2022-07-27T08:43:31.393Z,21.55
2022-07-27T08:46:00.664Z,21.57
2022-07-27T08:48:32.704Z,21.76
2022-07-27T08:50:59.267Z,22.00
2022-07-27T08:53:53.652Z,22.36
2022-07-27T08:56:21.495Z,22.67
2022-07-27T08:58:48.545Z,22.78
2022-07-27T09:01:16.439Z,22.87
2022-07-27T09:03:42.956Z,22.80
2022-07-27T09:06:10.104Z,22.70
2022-07-27T09:08:38.047Z,22.48
2022-07-27T09:11:15.235Z,22.33
2022-07-27T09:13:42.071Z,22.15
2022-07-27T09:16:19.666Z,22.03
2022-07-27T09:18:47.938Z,21.90
2022-07-27T09:21:22.889Z,21.91
2022-07-27T09:24:44.331Z,22.15
2022-07-27T09:27:03.491Z,22.26
2022-07-27T09:29:35.101Z,22.16
2022-07-27T09:32:14.650Z,22.20
2022-07-27T09:34:41.133Z,22.32
2022-07-27T09:37:07.953Z,22.63
2022-07-27T09:39:34.387Z,23.01
2022-07-27T09:42:02.382Z,23.36
2022-07-27T09:44:43.420Z,23.58
2022-07-27T09:47:27.761Z,23.70
2022-07-27T09:50:14.509Z,23.96
2022-07-27T09:52:41.346Z,24.09
2022-07-27T09:55:08.583Z,24.26
2022-07-27T09:57:55.733Z,24.41
2022-07-27T10:00:24.391Z,24.52
2022-07-27T10:02:53.420Z,24.48
2022-07-27T10:05:22.095Z,24.53
2022-07-27T10:07:49.971Z,24.18
2022-07-27T10:10:16.794Z,24.06
2022-07-27T10:12:46.927Z,24.15
2022-07-27T10:15:14.838Z,24.32
2022-07-27T10:17:44.223Z,24.37
2022-07-27T10:20:13.156Z,24.45
2022-07-27T10:22:49.045Z,24.70
2022-07-27T10:25:15.661Z,24.90
2022-07-27T10:27:47.248Z,24.97
2022-07-27T10:30:24.270Z,24.99
2022-07-27T10:32:54.836Z,25.09
2022-07-27T10:35:32.301Z,24.98
2022-07-27T10:38:44.064Z,24.88
2022-07-27T10:41:22.024Z,24.89
2022-07-27T10:43:50.908Z,24.90
2022-07-27T10:46:22.142Z,25.02
2022-07-27T10:48:49.424Z,25.09
2022-07-27T10:51:33.206Z,25.03
2022-07-27T10:54:18.194Z,25.04
2022-07-27T10:56:47.021Z,25.21
2022-07-27T10:59:15.085Z,25.34
2022-07-27T11:01:58.023Z,25.43
2022-07-27T11:04:24.810Z,25.54
2022-07-27T11:07:23.574Z,25.54
2022-07-27T11:12:30.829Z,25.56
2022-07-27T11:14:58.717Z,25.47
2022-07-27T11:17:54.162Z,25.14
2022-07-27T11:20:23.138Z,24.77
2022-07-27T11:25:36.429Z,24.57
2022-07-27T11:28:06.914Z,24.13
2022-07-27T11:30:33.933Z,23.75
2022-07-27T11:33:04.279Z,23.60
2022-07-27T11:35:30.943Z,23.80
2022-07-27T11:38:03.299Z,23.97
2022-07-27T11:40:56.530Z,24.16
2022-07-27T11:43:45.462Z,24.34
2022-07-27T11:46:24.681Z,24.38
2022-07-27T11:49:08.726Z,24.32
2022-07-27T11:51:38.752Z,24.35
2022-07-27T11:54:11.280Z,24.29
2022-07-27T11:56:42.512Z,24.24
2022-07-27T11:59:28.724Z,24.22
2022-07-27T12:02:07.146Z,24.13
2022-07-27T12:04:36.249Z,24.01
2022-07-27T12:07:15.401Z,23.90
2022-07-27T12:09:51.290Z,23.77
2022-07-27T12:12:20.142Z,23.69
2022-07-27T12:14:53.738Z,23.64
2022-07-27T12:17:37.688Z,23.69
2022-07-27T12:20:07.141Z,23.69
2022-07-27T12:22:35.176Z,23.62
2022-07-27T12:25:21.514Z,23.43
2022-07-27T12:28:03.876Z,23.26
2022-07-27T12:30:57.109Z,23.12
2022-07-27T12:33:35.127Z,22.76
2022-07-27T12:36:04.458Z,22.56
2022-07-27T12:38:39.891Z,22.61
2022-07-27T12:41:07.387Z,22.67
2022-07-27T12:43:33.874Z,22.68
2022-07-27T12:46:13.036Z,22.68
2022-07-27T12:48:41.929Z,22.70
2022-07-27T12:51:10.472Z,22.75
2022-07-27T12:53:38.243Z,22.81
2022-07-27T12:56:09.722Z,22.88
2022-07-27T12:58:37.058Z,22.93
2022-07-27T13:01:04.228Z,23.02
2022-07-27T13:03:30.697Z,23.03
2022-07-27T13:05:57.193Z,23.08
2022-07-27T13:08:24.037Z,23.10
2022-07-27T13:10:53.516Z,22.85
2022-07-27T13:13:23.940Z,22.73
2022-07-27T13:15:50.898Z,22.75
2022-07-27T13:18:22.836Z,22.86
2022-07-27T13:20:50.993Z,22.96
2022-07-27T13:23:17.840Z,23.01
2022-07-27T13:25:44.308Z,22.89
2022-07-27T13:28:11.689Z,22.65
2022-07-27T13:30:38.166Z,22.44
2022-07-27T13:33:05.012Z,22.20
2022-07-27T13:35:31.616Z,22.05
2022-07-27T13:37:58.319Z,22.06
2022-07-27T13:40:24.826Z,22.12
2022-07-27T13:42:51.220Z,22.04
2022-07-27T13:45:17.739Z,21.96
2022-07-27T13:47:44.309Z,21.79
2022-07-27T13:50:20.081Z,21.71
2022-07-27T13:52:47.695Z,21.83
2022-07-27T13:55:15.884Z,21.99
2022-07-27T13:57:44.355Z,22.09
2022-07-27T14:00:12.146Z,22.01
2022-07-27T14:02:39.247Z,21.81
2022-07-27T14:05:08.061Z,21.62
2022-07-27T14:07:34.671Z,21.56
2022-07-27T14:10:20.101Z,21.69
2022-07-27T14:12:46.543Z,21.68
2022-07-27T14:15:13.083Z,21.59
2022-07-27T14:17:39.484Z,21.62
2022-07-27T14:20:06.690Z,21.70
2022-07-27T14:22:33.169Z,21.82
2022-07-27T14:24:59.657Z,21.89
2022-07-27T14:27:26.093Z,21.94
2022-07-27T14:30:01.479Z,21.92
2022-07-27T14:32:28.034Z,21.88
2022-07-27T14:34:54.457Z,21.72
2022-07-27T14:37:20.888Z,21.63
2022-07-27T14:39:47.337Z,21.62
2022-07-27T14:42:14.294Z,21.70
2022-07-27T14:44:41.297Z,21.77
2022-07-27T14:47:07.909Z,21.78
2022-07-27T14:49:34.435Z,21.84
2022-07-27T14:52:00.915Z,21.87
2022-07-27T14:54:27.323Z,21.80
2022-07-27T14:56:54.245Z,21.76
2022-07-27T14:59:21.088Z,21.67
2022-07-27T15:01:47.607Z,21.52
2022-07-27T15:04:14.076Z,21.52
2022-07-27T15:06:40.609Z,21.51
2022-07-27T15:09:07.103Z,21.49
2022-07-27T15:11:33.891Z,21.43
2022-07-27T15:14:00.342Z,21.34
2022-07-27T15:16:30.622Z,21.19
2022-07-27T15:18:57.260Z,21.18
2022-07-27T15:21:24.869Z,21.17
2022-07-27T15:23:51.497Z,21.22
2022-07-27T15:26:17.953Z,21.25
2022-07-27T15:28:44.430Z,21.20
2022-07-27T15:31:11.092Z,21.19
2022-07-27T15:33:37.581Z,21.22
2022-07-27T15:36:04.473Z,21.17
2022-07-27T15:38:31.035Z,21.14
2022-07-27T15:40:57.548Z,21.16
2022-07-27T15:43:24.028Z,21.24
2022-07-27T15:45:51.542Z,21.38
2022-07-27T15:48:19.987Z,21.47
2022-07-27T15:50:49.708Z,21.49
2022-07-27T15:53:18.344Z,21.50
2022-07-27T15:55:45.370Z,21.62
2022-07-27T15:58:17.193Z,21.81
2022-07-27T16:00:52.768Z,22.01
2022-07-27T16:03:24.641Z,22.22
2022-07-27T16:05:52.858Z,22.43
2022-07-27T16:08:20.086Z,22.61
2022-07-27T16:10:47.794Z,22.74
2022-07-27T16:13:16.826Z,22.73
2022-07-27T16:16:02.797Z,22.87
2022-07-27T16:18:34.041Z,22.90
2022-07-27T16:21:01.421Z,22.97
2022-07-27T16:23:28.174Z,23.03
2022-07-27T16:26:06.320Z,23.06
2022-07-27T16:28:39.571Z,23.12
2022-07-27T16:31:09.799Z,23.21
2022-07-27T16:33:37.509Z,23.25
2022-07-27T16:36:05.651Z,23.34
2022-07-27T16:38:32.739Z,23.34
2022-07-27T16:40:59.557Z,23.42
2022-07-27T16:43:37.507Z,23.49
2022-07-27T16:46:09.398Z,23.50
2022-07-27T16:48:42.814Z,23.48
2022-07-27T16:51:16.271Z,23.47
2022-07-27T16:53:45.741Z,23.51
2022-07-27T16:56:12.365Z,23.44
2022-07-27T16:58:39.121Z,23.35
2022-07-27T17:01:07.225Z,23.28
2022-07-27T17:03:34.200Z,23.18
2022-07-27T17:06:05.695Z,23.16
2022-07-27T17:08:35.633Z,23.19
2022-07-27T17:11:02.371Z,23.22
2022-07-27T17:13:33.645Z,23.13
2022-07-27T17:16:07.049Z,23.01
2022-07-27T17:18:39.927Z,22.91
2022-07-27T17:21:11.804Z,22.83
2022-07-27T17:23:40.007Z,22.72
2022-07-27T17:26:07.404Z,22.61
2022-07-27T17:28:36.210Z,22.53
2022-07-27T17:31:04.363Z,22.55
2022-07-27T17:33:31.907Z,22.56
2022-07-27T17:35:59.418Z,22.50
2022-07-27T17:38:31.291Z,22.48
2022-07-27T17:41:00.957Z,22.42
2022-07-27T17:43:27.558Z,22.35
2022-07-27T17:45:56.292Z,22.30
2022-07-27T17:48:22.820Z,22.25
2022-07-27T17:50:50.789Z,22.18
2022-07-27T17:53:18.177Z,22.10
2022-07-27T17:55:44.677Z,22.00
2022-07-27T17:58:11.107Z,21.89
2022-07-27T18:00:37.677Z,21.79
2022-07-27T18:03:04.972Z,21.70
2022-07-27T18:05:32.306Z,21.60
2022-07-27T18:07:58.844Z,21.50
2022-07-27T18:10:25.392Z,21.40
2022-07-27T18:12:51.769Z,21.29
2022-07-27T18:15:37.126Z,21.20
2022-07-27T18:18:04.443Z,21.09
2022-07-27T18:20:31.207Z,20.98
2022-07-27T18:22:58.217Z,20.87
2022-07-27T18:25:25.478Z,20.76
2022-07-27T18:27:51.991Z,20.65
2022-07-27T18:30:18.499Z,20.54
2022-07-27T18:32:45.078Z,20.43
2022-07-27T18:35:12.614Z,20.31
2022-07-27T18:37:40.806Z,20.19
2022-07-27T18:40:08.698Z,20.07
2022-07-27T18:42:36.760Z,19.95
2022-07-27T18:45:05.451Z,19.84
2022-07-27T18:47:32.259Z,19.73
2022-07-27T18:49:58.858Z,19.62
2022-07-27T18:52:25.500Z,19.51
2022-07-27T18:54:53.587Z,19.40
2022-07-27T18:57:20.094Z,19.29
2022-07-27T18:59:47.457Z,19.17
2022-07-27T19:02:15.598Z,19.07
2022-07-27T19:04:42.377Z,18.97
2022-07-27T19:07:09.968Z,18.88
2022-07-27T19:09:36.636Z,18.80
2022-07-27T19:12:09.371Z,18.70
2022-07-27T19:14:36.428Z,18.60
2022-07-27T19:17:02.935Z,18.51
2022-07-27T19:19:29.872Z,18.42
2022-07-27T19:21:56.988Z,18.33
2022-07-27T19:24:24.901Z,18.24
2022-07-27T19:26:51.378Z,18.16
2022-07-27T19:29:19.259Z,18.06
2022-07-27T19:31:46.285Z,17.96
2022-07-27T19:34:12.792Z,17.87
2022-07-27T19:36:39.620Z,17.78
2022-07-27T19:39:08.126Z,17.67
2022-07-27T19:41:35.659Z,17.54
2022-07-27T19:44:03.283Z,17.43
2022-07-27T19:46:30.014Z,17.33
2022-07-27T19:48:56.957Z,17.23
2022-07-27T19:51:24.409Z,17.15
2022-07-27T19:53:51.089Z,17.07
2022-07-27T19:56:17.638Z,17.00
2022-07-27T19:58:45.899Z,16.94
2022-07-27T20:01:13.546Z,16.88
2022-07-27T20:03:48.818Z,16.82
2022-07-27T20:06:25.468Z,16.78
2022-07-27T20:08:58.941Z,16.75
2022-07-27T20:11:29.460Z,16.71
2022-07-27T20:13:57.013Z,16.68
2022-07-27T20:16:23.832Z,16.65
2022-07-27T20:18:50.358Z,16.62
2022-07-27T20:21:22.732Z,16.60
2022-07-27T20:23:51.906Z,16.57
2022-07-27T20:26:19.173Z,16.64
2022-07-27T20:28:46.544Z,16.69
2022-07-27T20:31:13.227Z,16.66
2022-07-27T20:33:40.275Z,16.63
2022-07-27T20:36:06.949Z,16.60
2022-07-27T20:38:33.862Z,16.58
2022-07-27T20:41:00.266Z,16.56
2022-07-27T20:43:27.301Z,16.53
2022-07-27T20:45:54.289Z,16.52
2022-07-27T20:48:20.891Z,16.48
2022-07-27T20:50:47.560Z,16.46
2022-07-27T20:53:14.125Z,16.44
2022-07-27T20:55:42.443Z,16.44
2022-07-27T20:58:09.088Z,16.46
2022-07-27T21:00:36.780Z,16.46
2022-07-27T21:03:04.790Z,16.42
2022-07-27T21:05:31.186Z,16.37
2022-07-27T21:07:57.745Z,16.34
2022-07-27T21:10:24.680Z,16.29
2022-07-27T21:12:52.516Z,16.23
2022-07-27T21:15:19.419Z,16.18
2022-07-27T21:17:45.882Z,16.15
2022-07-27T21:20:14.350Z,16.13
2022-07-27T21:22:42.532Z,16.10
2022-07-27T21:25:10.141Z,16.08
2022-07-27T21:27:36.767Z,16.05
2022-07-27T21:30:05.770Z,16.02
2022-07-27T21:32:33.733Z,16.00
2022-07-27T21:35:00.551Z,15.98
2022-07-27T21:37:33.494Z,15.94
2022-07-27T21:39:59.919Z,15.92
2022-07-27T21:42:27.320Z,15.89
2022-07-27T21:44:55.468Z,15.87
2022-07-27T21:47:23.189Z,15.83
2022-07-27T21:49:49.830Z,15.80
2022-07-27T21:52:16.230Z,15.77
2022-07-27T21:54:42.750Z,15.74
2022-07-27T21:57:09.178Z,15.71
2022-07-27T21:59:36.244Z,15.67
2022-07-27T22:02:03.607Z,15.62
2022-07-27T22:04:30.074Z,15.57
2022-07-27T22:06:56.593Z,15.49
2022-07-27T22:09:23.112Z,15.44
2022-07-27T22:11:50.150Z,15.38
2022-07-27T22:14:17.070Z,15.31
2022-07-27T22:16:43.882Z,15.25
2022-07-27T22:19:10.467Z,15.19
2022-07-27T22:21:36.940Z,15.13
2022-07-27T22:24:04.835Z,15.07
2022-07-27T22:26:31.429Z,15.01
2022-07-27T22:28:58.455Z,14.97
2022-07-27T22:31:24.929Z,14.95
2022-07-27T22:33:51.724Z,14.94
2022-07-27T22:36:18.496Z,14.93
2022-07-27T22:38:44.912Z,14.90
2022-07-27T22:41:11.525Z,14.89
2022-07-27T22:43:40.755Z,14.86
2022-07-27T22:46:09.391Z,14.82
2022-07-27T22:48:37.248Z,14.77
2022-07-27T22:51:04.271Z,14.72
2022-07-27T22:53:30.670Z,14.69
2022-07-27T22:55:57.087Z,14.65
2022-07-27T22:58:23.536Z,14.61
2022-07-27T23:00:50.111Z,14.56
2022-07-27T23:03:16.733Z,14.50
2022-07-27T23:05:43.180Z,14.44
2022-07-27T23:08:09.678Z,14.38
2022-07-27T23:10:45.082Z,14.33
2022-07-27T23:13:16.219Z,14.28
2022-07-27T23:15:44.676Z,14.21
2022-07-27T23:18:12.800Z,14.17
2022-07-27T23:20:40.126Z,14.14
2022-07-27T23:23:15.741Z,14.13
2022-07-27T23:25:48.773Z,14.11
2022-07-27T23:28:16.102Z,14.08
2022-07-27T23:30:50.818Z,14.03
2022-07-27T23:33:17.851Z,13.99
2022-07-27T23:35:44.370Z,13.95
2022-07-27T23:38:10.809Z,13.90
2022-07-27T23:40:37.266Z,13.86
2022-07-27T23:43:03.785Z,13.83
2022-07-27T23:45:30.433Z,13.79
2022-07-27T23:47:56.847Z,13.76
2022-07-27T23:50:23.501Z,13.72
2022-07-27T23:52:50.043Z,13.69
2022-07-27T23:55:17.454Z,13.66
2022-07-27T23:57:44.320Z,13.64
